sensor_id;sensor_type;location;lat;lon;timestamp;P1;durP1;ratioP1;P2;durP2;ratioP2
64401;SDS011;50724;42.376;23.768;2023-05-27T05:04:55;3.97;;;2.10;;
64401;SDS011;50724;42.376;23.768;2023-05-27T05:08:04;4.50;;;2.30;;
64401;SDS011;50724;42.376;23.768;2023-05-27T05:11:04;4.57;;;2.30;;
64401;SDS011;50724;42.376;23.768;2023-05-27T05:14:05;4.20;;;2.30;;
64401;SDS011;50724;42.376;23.768;2023-05-27T05:17:05;4.70;;;2.63;;
64401;SDS011;50724;42.376;23.768;2023-05-27T05:20:06;4.40;;;2.77;;
64401;SDS011;50724;42.376;23.768;2023-05-27T05:23:08;4.53;;;2.13;;
64401;SDS011;50724;42.376;23.768;2023-05-27T05:26:09;5.13;;;2.50;;
64401;SDS011;50724;42.376;23.768;2023-05-27T05:29:10;5.20;;;2.28;;
64401;SDS011;50724;42.376;23.768;2023-05-27T05:32:10;5.10;;;2.70;;
64401;SDS011;50724;42.376;23.768;2023-05-27T05:35:11;5.32;;;2.88;;
64401;SDS011;50724;42.376;23.768;2023-05-27T05:38:14;5.43;;;2.60;;
64401;SDS011;50724;42.376;23.768;2023-05-27T05:41:15;5.70;;;2.63;;
64401;SDS011;50724;42.376;23.768;2023-05-27T05:44:15;4.50;;;2.57;;
64401;SDS011;50724;42.376;23.768;2023-05-27T05:47:16;5.18;;;2.67;;
64401;SDS011;50724;42.376;23.768;2023-05-27T05:50:16;5.35;;;2.65;;
64401;SDS011;50724;42.376;23.768;2023-05-27T05:53:17;6.32;;;2.97;;
64401;SDS011;50724;42.376;23.768;2023-05-27T05:56:17;4.35;;;2.47;;
64401;SDS011;50724;42.376;23.768;2023-05-27T05:59:18;7.20;;;2.60;;
64401;SDS011;50724;42.376;23.768;2023-05-27T06:02:18;5.83;;;2.80;;
64401;SDS011;50724;42.376;23.768;2023-05-27T06:05:19;6.35;;;4.20;;
64401;SDS011;50724;42.376;23.768;2023-05-27T06:08:20;6.10;;;3.17;;
64401;SDS011;50724;42.376;23.768;2023-05-27T06:11:21;5.40;;;2.70;;
64401;SDS011;50724;42.376;23.768;2023-05-27T06:14:21;6.40;;;3.15;;
64401;SDS011;50724;42.376;23.768;2023-05-27T06:17:22;5.15;;;2.80;;
64401;SDS011;50724;42.376;23.768;2023-05-27T06:20:23;6.07;;;2.87;;
64401;SDS011;50724;42.376;23.768;2023-05-27T06:23:23;5.60;;;2.80;;
64401;SDS011;50724;42.376;23.768;2023-05-27T06:26:24;4.45;;;2.60;;
64401;SDS011;50724;42.376;23.768;2023-05-27T06:29:24;5.57;;;2.65;;
64401;SDS011;50724;42.376;23.768;2023-05-27T06:32:25;5.30;;;3.00;;
64401;SDS011;50724;42.376;23.768;2023-05-27T06:35:25;5.97;;;2.67;;
64401;SDS011;50724;42.376;23.768;2023-05-27T06:38:26;6.80;;;2.47;;
64401;SDS011;50724;42.376;23.768;2023-05-27T06:41:26;5.10;;;2.70;;
64401;SDS011;50724;42.376;23.768;2023-05-27T06:44:26;6.03;;;3.00;;
64401;SDS011;50724;42.376;23.768;2023-05-27T06:47:27;4.17;;;2.70;;
64401;SDS011;50724;42.376;23.768;2023-05-27T06:50:27;4.97;;;2.43;;
64401;SDS011;50724;42.376;23.768;2023-05-27T06:53:27;5.77;;;3.10;;
64401;SDS011;50724;42.376;23.768;2023-05-27T06:56:28;5.35;;;2.70;;
64401;SDS011;50724;42.376;23.768;2023-05-27T06:59:28;5.00;;;2.38;;
64401;SDS011;50724;42.376;23.768;2023-05-27T07:02:29;5.97;;;2.47;;
64401;SDS011;50724;42.376;23.768;2023-05-27T07:05:29;5.03;;;2.65;;
64401;SDS011;50724;42.376;23.768;2023-05-27T07:08:30;6.27;;;2.53;;
64401;SDS011;50724;42.376;23.768;2023-05-27T07:11:31;6.65;;;2.72;;
64401;SDS011;50724;42.376;23.768;2023-05-27T07:14:31;6.57;;;2.72;;
64401;SDS011;50724;42.376;23.768;2023-05-27T07:17:32;5.03;;;2.58;;
64401;SDS011;50724;42.376;23.768;2023-05-27T07:20:33;5.57;;;2.47;;
64401;SDS011;50724;42.376;23.768;2023-05-27T07:23:34;4.75;;;2.78;;
64401;SDS011;50724;42.376;23.768;2023-05-27T07:26:35;4.20;;;2.55;;
64401;SDS011;50724;42.376;23.768;2023-05-27T07:29:35;5.97;;;2.30;;
64401;SDS011;50724;42.376;23.768;2023-05-27T07:32:35;4.97;;;1.80;;
64401;SDS011;50724;42.376;23.768;2023-05-27T07:35:36;4.78;;;2.30;;
64401;SDS011;50724;42.376;23.768;2023-05-27T07:38:37;4.85;;;2.55;;
64401;SDS011;50724;42.376;23.768;2023-05-27T07:41:37;4.70;;;2.20;;
64401;SDS011;50724;42.376;23.768;2023-05-27T07:44:38;4.50;;;2.33;;
64401;SDS011;50724;42.376;23.768;2023-05-27T07:47:38;5.50;;;2.35;;
64401;SDS011;50724;42.376;23.768;2023-05-27T07:50:39;7.65;;;2.60;;
64401;SDS011;50724;42.376;23.768;2023-05-27T07:53:39;4.80;;;2.40;;
64401;SDS011;50724;42.376;23.768;2023-05-27T07:56:39;3.83;;;2.20;;
64401;SDS011;50724;42.376;23.768;2023-05-27T07:59:40;9.73;;;2.90;;
64401;SDS011;50724;42.376;23.768;2023-05-27T08:02:40;5.77;;;2.77;;
64401;SDS011;50724;42.376;23.768;2023-05-27T08:05:43;5.35;;;2.90;;
64401;SDS011;50724;42.376;23.768;2023-05-27T08:08:43;5.60;;;3.30;;
64401;SDS011;50724;42.376;23.768;2023-05-27T08:11:44;5.75;;;3.00;;
64401;SDS011;50724;42.376;23.768;2023-05-27T08:14:45;4.90;;;2.90;;
64401;SDS011;50724;42.376;23.768;2023-05-27T08:17:45;6.05;;;3.08;;
64401;SDS011;50724;42.376;23.768;2023-05-27T08:20:46;5.35;;;3.00;;
64401;SDS011;50724;42.376;23.768;2023-05-27T08:23:46;6.25;;;3.10;;
64401;SDS011;50724;42.376;23.768;2023-05-27T08:26:46;4.63;;;2.67;;
64401;SDS011;50724;42.376;23.768;2023-05-27T08:29:47;5.50;;;3.05;;
64401;SDS011;50724;42.376;23.768;2023-05-27T08:32:48;6.82;;;3.20;;
64401;SDS011;50724;42.376;23.768;2023-05-27T08:35:48;5.05;;;3.10;;
64401;SDS011;50724;42.376;23.768;2023-05-27T08:38:49;5.40;;;3.00;;
64401;SDS011;50724;42.376;23.768;2023-05-27T08:41:49;5.15;;;2.70;;
64401;SDS011;50724;42.376;23.768;2023-05-27T08:44:51;5.75;;;2.80;;
64401;SDS011;50724;42.376;23.768;2023-05-27T08:47:51;6.53;;;2.63;;
64401;SDS011;50724;42.376;23.768;2023-05-27T08:50:53;4.82;;;2.90;;
64401;SDS011;50724;42.376;23.768;2023-05-27T08:53:54;6.63;;;3.20;;
64401;SDS011;50724;42.376;23.768;2023-05-27T08:56:55;5.77;;;3.33;;
64401;SDS011;50724;42.376;23.768;2023-05-27T08:59:57;7.05;;;3.13;;
64401;SDS011;50724;42.376;23.768;2023-05-27T09:02:58;4.70;;;2.67;;
64401;SDS011;50724;42.376;23.768;2023-05-27T09:05:59;6.05;;;2.92;;
64401;SDS011;50724;42.376;23.768;2023-05-27T09:09:03;6.80;;;2.90;;
64401;SDS011;50724;42.376;23.768;2023-05-27T09:12:03;5.93;;;3.25;;
64401;SDS011;50724;42.376;23.768;2023-05-27T09:15:06;5.85;;;3.08;;
64401;SDS011;50724;42.376;23.768;2023-05-27T09:18:06;5.13;;;2.72;;
64401;SDS011;50724;42.376;23.768;2023-05-27T09:21:07;4.90;;;2.75;;
64401;SDS011;50724;42.376;23.768;2023-05-27T09:24:09;7.40;;;2.97;;
64401;SDS011;50724;42.376;23.768;2023-05-27T09:27:10;6.80;;;3.40;;
64401;SDS011;50724;42.376;23.768;2023-05-27T09:30:11;6.10;;;3.25;;
64401;SDS011;50724;42.376;23.768;2023-05-27T09:33:12;6.75;;;3.55;;
64401;SDS011;50724;42.376;23.768;2023-05-27T09:36:12;4.28;;;2.22;;
64401;SDS011;50724;42.376;23.768;2023-05-27T09:39:14;5.65;;;2.97;;
64401;SDS011;50724;42.376;23.768;2023-05-27T09:42:15;6.78;;;3.28;;
64401;SDS011;50724;42.376;23.768;2023-05-27T09:45:19;6.53;;;3.38;;
64401;SDS011;50724;42.376;23.768;2023-05-27T09:48:20;5.78;;;3.40;;
64401;SDS011;50724;42.376;23.768;2023-05-27T09:51:22;6.97;;;3.03;;
64401;SDS011;50724;42.376;23.768;2023-05-27T09:54:23;7.82;;;3.47;;
64401;SDS011;50724;42.376;23.768;2023-05-27T09:57:24;5.80;;;3.28;;
64401;SDS011;50724;42.376;23.768;2023-05-27T10:00:25;7.18;;;3.85;;
64401;SDS011;50724;42.376;23.768;2023-05-27T10:03:27;6.28;;;3.75;;
64401;SDS011;50724;42.376;23.768;2023-05-27T10:06:30;7.75;;;3.97;;
64401;SDS011;50724;42.376;23.768;2023-05-27T10:09:32;5.45;;;3.35;;
64401;SDS011;50724;42.376;23.768;2023-05-27T10:12:32;7.60;;;4.10;;
64401;SDS011;50724;42.376;23.768;2023-05-27T10:15:34;9.55;;;4.63;;
64401;SDS011;50724;42.376;23.768;2023-05-27T10:18:35;8.02;;;4.97;;
64401;SDS011;50724;42.376;23.768;2023-05-27T10:21:43;9.55;;;4.85;;
64401;SDS011;50724;42.376;23.768;2023-05-27T10:24:45;7.80;;;4.18;;
64401;SDS011;50724;42.376;23.768;2023-05-27T10:27:48;7.13;;;4.28;;
64401;SDS011;50724;42.376;23.768;2023-05-27T10:30:48;7.60;;;4.80;;
64401;SDS011;50724;42.376;23.768;2023-05-27T10:33:49;11.00;;;4.93;;
64401;SDS011;50724;42.376;23.768;2023-05-27T10:36:59;11.13;;;5.32;;
64401;SDS011;50724;42.376;23.768;2023-05-27T10:40:04;6.95;;;4.45;;
64401;SDS011;50724;42.376;23.768;2023-05-27T10:43:06;9.95;;;4.80;;
64401;SDS011;50724;42.376;23.768;2023-05-27T10:46:15;8.40;;;5.03;;
64401;SDS011;50724;42.376;23.768;2023-05-27T10:49:22;8.10;;;4.70;;
64401;SDS011;50724;42.376;23.768;2023-05-27T10:52:25;7.82;;;4.60;;
64401;SDS011;50724;42.376;23.768;2023-05-27T10:55:31;9.90;;;4.82;;
64401;SDS011;50724;42.376;23.768;2023-05-27T10:58:33;9.02;;;5.07;;
64401;SDS011;50724;42.376;23.768;2023-05-27T11:01:37;7.97;;;4.45;;
64401;SDS011;50724;42.376;23.768;2023-05-27T11:04:55;9.45;;;4.72;;
64401;SDS011;50724;42.376;23.768;2023-05-27T11:07:55;7.75;;;4.57;;
64401;SDS011;50724;42.376;23.768;2023-05-27T11:11:00;8.68;;;4.28;;
64401;SDS011;50724;42.376;23.768;2023-05-27T11:14:01;8.43;;;4.35;;
64401;SDS011;50724;42.376;23.768;2023-05-27T11:17:02;7.72;;;4.50;;
64401;SDS011;50724;42.376;23.768;2023-05-27T11:20:02;9.70;;;4.65;;
64401;SDS011;50724;42.376;23.768;2023-05-27T11:23:05;9.00;;;4.35;;
64401;SDS011;50724;42.376;23.768;2023-05-27T11:26:15;7.07;;;3.97;;
64401;SDS011;50724;42.376;23.768;2023-05-27T11:29:21;7.57;;;4.15;;
64401;SDS011;50724;42.376;23.768;2023-05-27T11:32:21;7.45;;;4.40;;
64401;SDS011;50724;42.376;23.768;2023-05-27T11:35:22;8.40;;;4.20;;
64401;SDS011;50724;42.376;23.768;2023-05-27T11:38:22;7.97;;;3.60;;
64401;SDS011;50724;42.376;23.768;2023-05-27T11:41:23;6.20;;;3.70;;
64401;SDS011;50724;42.376;23.768;2023-05-27T11:44:28;6.60;;;3.65;;
64401;SDS011;50724;42.376;23.768;2023-05-27T11:47:28;7.23;;;3.70;;
64401;SDS011;50724;42.376;23.768;2023-05-27T11:50:29;6.80;;;3.40;;
64401;SDS011;50724;42.376;23.768;2023-05-27T11:53:29;5.80;;;3.47;;
64401;SDS011;50724;42.376;23.768;2023-05-27T11:56:30;5.38;;;3.30;;
64401;SDS011;50724;42.376;23.768;2023-05-27T11:59:30;6.05;;;3.45;;
64401;SDS011;50724;42.376;23.768;2023-05-27T12:02:31;6.22;;;3.75;;
64401;SDS011;50724;42.376;23.768;2023-05-27T12:05:32;6.40;;;3.53;;
64401;SDS011;50724;42.376;23.768;2023-05-27T12:08:32;5.93;;;3.50;;
64401;SDS011;50724;42.376;23.768;2023-05-27T12:11:32;8.80;;;3.53;;
64401;SDS011;50724;42.376;23.768;2023-05-27T12:14:33;6.80;;;3.20;;
64401;SDS011;50724;42.376;23.768;2023-05-27T12:17:33;5.13;;;3.17;;
64401;SDS011;50724;42.376;23.768;2023-05-27T12:20:34;7.73;;;3.43;;
64401;SDS011;50724;42.376;23.768;2023-05-27T12:23:34;6.32;;;3.50;;
64401;SDS011;50724;42.376;23.768;2023-05-27T12:26:35;4.70;;;3.10;;
64401;SDS011;50724;42.376;23.768;2023-05-27T12:32:37;4.73;;;3.00;;
64401;SDS011;50724;42.376;23.768;2023-05-27T12:35:38;6.10;;;2.85;;
64401;SDS011;50724;42.376;23.768;2023-05-27T12:38:38;7.32;;;3.92;;
64401;SDS011;50724;42.376;23.768;2023-05-27T12:41:39;6.20;;;3.30;;
64401;SDS011;50724;42.376;23.768;2023-05-27T12:44:39;6.45;;;3.70;;
64401;SDS011;50724;42.376;23.768;2023-05-27T12:47:40;6.60;;;3.40;;
64401;SDS011;50724;42.376;23.768;2023-05-27T12:50:40;6.63;;;3.80;;
64401;SDS011;50724;42.376;23.768;2023-05-27T12:53:43;8.80;;;3.78;;
64401;SDS011;50724;42.376;23.768;2023-05-27T12:56:43;5.72;;;3.28;;
64401;SDS011;50724;42.376;23.768;2023-05-27T12:59:44;7.15;;;3.33;;
64401;SDS011;50724;42.376;23.768;2023-05-27T13:02:45;6.53;;;3.40;;
64401;SDS011;50724;42.376;23.768;2023-05-27T13:05:47;6.82;;;3.50;;
64401;SDS011;50724;42.376;23.768;2023-05-27T13:08:47;7.07;;;3.47;;
64401;SDS011;50724;42.376;23.768;2023-05-27T13:11:47;6.50;;;3.45;;
64401;SDS011;50724;42.376;23.768;2023-05-27T13:14:48;6.20;;;3.13;;
64401;SDS011;50724;42.376;23.768;2023-05-27T13:17:49;5.70;;;3.03;;
64401;SDS011;50724;42.376;23.768;2023-05-27T13:23:51;5.30;;;3.30;;
64401;SDS011;50724;42.376;23.768;2023-05-27T13:29:52;5.50;;;3.20;;
64401;SDS011;50724;42.376;23.768;2023-05-27T13:32:53;8.60;;;3.60;;
64401;SDS011;50724;42.376;23.768;2023-05-27T13:35:55;5.10;;;3.00;;
64401;SDS011;50724;42.376;23.768;2023-05-27T13:38:55;5.38;;;3.63;;
64401;SDS011;50724;42.376;23.768;2023-05-27T13:41:56;8.10;;;3.30;;
64401;SDS011;50724;42.376;23.768;2023-05-27T13:44:57;7.15;;;3.20;;
64401;SDS011;50724;42.376;23.768;2023-05-27T13:47:57;5.30;;;3.50;;
64401;SDS011;50724;42.376;23.768;2023-05-27T13:50:57;5.77;;;3.23;;
64401;SDS011;50724;42.376;23.768;2023-05-27T13:53:58;5.88;;;3.20;;
64401;SDS011;50724;42.376;23.768;2023-05-27T13:56:59;6.30;;;3.20;;
64401;SDS011;50724;42.376;23.768;2023-05-27T13:59:59;6.13;;;3.40;;
64401;SDS011;50724;42.376;23.768;2023-05-27T14:02:59;5.77;;;2.60;;
64401;SDS011;50724;42.376;23.768;2023-05-27T14:06:00;6.53;;;3.47;;
64401;SDS011;50724;42.376;23.768;2023-05-27T14:09:00;4.88;;;2.85;;
64401;SDS011;50724;42.376;23.768;2023-05-27T14:12:01;6.22;;;3.28;;
64401;SDS011;50724;42.376;23.768;2023-05-27T14:15:02;6.28;;;3.22;;
64401;SDS011;50724;42.376;23.768;2023-05-27T14:18:03;9.30;;;3.40;;
64401;SDS011;50724;42.376;23.768;2023-05-27T14:21:05;7.03;;;3.00;;
64401;SDS011;50724;42.376;23.768;2023-05-27T14:24:06;5.38;;;2.92;;
64401;SDS011;50724;42.376;23.768;2023-05-27T14:27:06;4.75;;;3.22;;
64401;SDS011;50724;42.376;23.768;2023-05-27T14:30:07;10.38;;;3.58;;
64401;SDS011;50724;42.376;23.768;2023-05-27T14:33:08;5.63;;;3.20;;
64401;SDS011;50724;42.376;23.768;2023-05-27T14:36:09;5.13;;;3.22;;
64401;SDS011;50724;42.376;23.768;2023-05-27T14:39:10;4.63;;;3.00;;
64401;SDS011;50724;42.376;23.768;2023-05-27T14:42:10;6.93;;;3.35;;
64401;SDS011;50724;42.376;23.768;2023-05-27T14:45:11;4.88;;;2.80;;
64401;SDS011;50724;42.376;23.768;2023-05-27T14:48:11;7.45;;;3.30;;
64401;SDS011;50724;42.376;23.768;2023-05-27T14:51:12;5.10;;;3.00;;
64401;SDS011;50724;42.376;23.768;2023-05-27T14:54:12;5.90;;;2.80;;
64401;SDS011;50724;42.376;23.768;2023-05-27T14:57:13;4.57;;;2.72;;
64401;SDS011;50724;42.376;23.768;2023-05-27T15:00:13;6.67;;;3.33;;
64401;SDS011;50724;42.376;23.768;2023-05-27T15:03:14;5.15;;;3.00;;
64401;SDS011;50724;42.376;23.768;2023-05-27T15:06:15;5.72;;;2.83;;
64401;SDS011;50724;42.376;23.768;2023-05-27T15:09:15;4.75;;;3.20;;
64401;SDS011;50724;42.376;23.768;2023-05-27T15:12:17;4.97;;;3.00;;
64401;SDS011;50724;42.376;23.768;2023-05-27T15:15:18;6.57;;;2.90;;
64401;SDS011;50724;42.376;23.768;2023-05-27T15:18:20;5.18;;;3.67;;
64401;SDS011;50724;42.376;23.768;2023-05-27T15:21:21;4.45;;;2.72;;
64401;SDS011;50724;42.376;23.768;2023-05-27T15:24:21;5.38;;;3.00;;
64401;SDS011;50724;42.376;23.768;2023-05-27T15:27:22;6.00;;;3.20;;
64401;SDS011;50724;42.376;23.768;2023-05-27T15:30:22;7.68;;;4.40;;
64401;SDS011;50724;42.376;23.768;2023-05-27T15:33:23;6.07;;;2.50;;
64401;SDS011;50724;42.376;23.768;2023-05-27T15:36:23;6.57;;;2.97;;
64401;SDS011;50724;42.376;23.768;2023-05-27T15:39:24;4.87;;;3.03;;
64401;SDS011;50724;42.376;23.768;2023-05-27T15:42:24;4.28;;;2.80;;
64401;SDS011;50724;42.376;23.768;2023-05-27T15:45:34;6.20;;;3.22;;
64401;SDS011;50724;42.376;23.768;2023-05-27T15:48:35;5.03;;;3.08;;
64401;SDS011;50724;42.376;23.768;2023-05-27T15:51:36;5.72;;;3.17;;
64401;SDS011;50724;42.376;23.768;2023-05-27T15:54:37;5.18;;;3.35;;
64401;SDS011;50724;42.376;23.768;2023-05-27T15:57:38;4.30;;;3.08;;
64401;SDS011;50724;42.376;23.768;2023-05-27T16:00:38;6.70;;;2.87;;
64401;SDS011;50724;42.376;23.768;2023-05-27T16:03:39;6.53;;;3.20;;
64401;SDS011;50724;42.376;23.768;2023-05-27T16:06:40;6.07;;;3.35;;
64401;SDS011;50724;42.376;23.768;2023-05-27T16:09:40;6.20;;;2.97;;
64401;SDS011;50724;42.376;23.768;2023-05-27T16:12:40;5.35;;;2.83;;
64401;SDS011;50724;42.376;23.768;2023-05-27T16:18:42;6.23;;;3.97;;
64401;SDS011;50724;42.376;23.768;2023-05-27T16:21:42;5.97;;;3.45;;
64401;SDS011;50724;42.376;23.768;2023-05-27T16:24:53;5.75;;;3.53;;
64401;SDS011;50724;42.376;23.768;2023-05-27T16:27:53;5.75;;;3.50;;
64401;SDS011;50724;42.376;23.768;2023-05-27T16:30:54;7.80;;;3.53;;
64401;SDS011;50724;42.376;23.768;2023-05-27T16:33:54;5.78;;;3.35;;
64401;SDS011;50724;42.376;23.768;2023-05-27T16:36:55;7.68;;;3.78;;
64401;SDS011;50724;42.376;23.768;2023-05-27T16:39:55;5.70;;;3.10;;
64401;SDS011;50724;42.376;23.768;2023-05-27T16:42:56;7.50;;;2.95;;
64401;SDS011;50724;42.376;23.768;2023-05-27T16:45:56;6.87;;;3.40;;
64401;SDS011;50724;42.376;23.768;2023-05-27T16:48:56;6.83;;;3.77;;
64401;SDS011;50724;42.376;23.768;2023-05-27T16:51:57;6.13;;;3.27;;
64401;SDS011;50724;42.376;23.768;2023-05-27T16:54:57;6.88;;;3.60;;
64401;SDS011;50724;42.376;23.768;2023-05-27T16:57:58;8.35;;;4.07;;
64401;SDS011;50724;42.376;23.768;2023-05-27T17:00:59;5.93;;;4.00;;
64401;SDS011;50724;42.376;23.768;2023-05-27T17:03:59;6.05;;;3.95;;
64401;SDS011;50724;42.376;23.768;2023-05-27T17:07:00;6.73;;;3.67;;
64401;SDS011;50724;42.376;23.768;2023-05-27T17:10:00;10.05;;;4.00;;
64401;SDS011;50724;42.376;23.768;2023-05-27T17:13:01;8.45;;;3.90;;
64401;SDS011;50724;42.376;23.768;2023-05-27T17:16:01;6.88;;;3.80;;
64401;SDS011;50724;42.376;23.768;2023-05-27T17:19:02;7.03;;;3.75;;
64401;SDS011;50724;42.376;23.768;2023-05-27T17:22:02;6.30;;;3.35;;
64401;SDS011;50724;42.376;23.768;2023-05-27T17:25:03;7.22;;;3.67;;
64401;SDS011;50724;42.376;23.768;2023-05-27T17:28:03;7.18;;;3.90;;
64401;SDS011;50724;42.376;23.768;2023-05-27T17:31:04;7.72;;;3.53;;
64401;SDS011;50724;42.376;23.768;2023-05-27T17:34:04;6.20;;;3.92;;
64401;SDS011;50724;42.376;23.768;2023-05-27T17:37:05;7.03;;;4.63;;
64401;SDS011;50724;42.376;23.768;2023-05-27T17:40:06;8.25;;;4.38;;
64401;SDS011;50724;42.376;23.768;2023-05-27T17:43:08;9.77;;;4.68;;
64401;SDS011;50724;42.376;23.768;2023-05-27T17:46:09;10.47;;;5.37;;
64401;SDS011;50724;42.376;23.768;2023-05-27T17:49:12;9.73;;;4.90;;
64401;SDS011;50724;42.376;23.768;2023-05-27T17:52:12;7.33;;;4.93;;
64401;SDS011;50724;42.376;23.768;2023-05-27T17:55:14;8.07;;;5.00;;
64401;SDS011;50724;42.376;23.768;2023-05-27T17:58:14;7.63;;;4.88;;
64401;SDS011;50724;42.376;23.768;2023-05-27T18:01:15;10.35;;;4.97;;
64401;SDS011;50724;42.376;23.768;2023-05-27T18:04:16;8.55;;;4.95;;
64401;SDS011;50724;42.376;23.768;2023-05-27T18:07:16;9.67;;;5.50;;
64401;SDS011;50724;42.376;23.768;2023-05-27T18:10:17;8.68;;;4.85;;
64401;SDS011;50724;42.376;23.768;2023-05-27T18:13:21;8.13;;;5.00;;
64401;SDS011;50724;42.376;23.768;2023-05-27T18:16:21;7.75;;;5.15;;
64401;SDS011;50724;42.376;23.768;2023-05-27T18:19:22;10.18;;;5.45;;
64401;SDS011;50724;42.376;23.768;2023-05-27T18:22:23;10.00;;;4.63;;
64401;SDS011;50724;42.376;23.768;2023-05-27T18:25:23;7.50;;;4.80;;
64401;SDS011;50724;42.376;23.768;2023-05-27T18:28:24;9.70;;;5.65;;
64401;SDS011;50724;42.376;23.768;2023-05-27T18:31:24;8.60;;;5.53;;
64401;SDS011;50724;42.376;23.768;2023-05-27T18:34:25;8.02;;;4.82;;
64401;SDS011;50724;42.376;23.768;2023-05-27T18:37:26;7.90;;;4.30;;
64401;SDS011;50724;42.376;23.768;2023-05-27T18:40:26;10.70;;;5.60;;
64401;SDS011;50724;42.376;23.768;2023-05-27T18:43:29;9.25;;;6.32;;
64401;SDS011;50724;42.376;23.768;2023-05-27T18:46:29;9.07;;;5.10;;
64401;SDS011;50724;42.376;23.768;2023-05-27T18:49:30;10.80;;;5.88;;
64401;SDS011;50724;42.376;23.768;2023-05-27T18:52:30;7.63;;;4.82;;
64401;SDS011;50724;42.376;23.768;2023-05-27T18:55:31;6.00;;;3.38;;
64401;SDS011;50724;42.376;23.768;2023-05-27T18:58:31;7.47;;;3.40;;
64401;SDS011;50724;42.376;23.768;2023-05-27T19:01:35;4.75;;;2.65;;
64401;SDS011;50724;42.376;23.768;2023-05-27T19:04:36;10.45;;;2.85;;
64401;SDS011;50724;42.376;23.768;2023-05-27T19:07:37;5.60;;;3.25;;
64401;SDS011;50724;42.376;23.768;2023-05-27T19:10:37;4.22;;;2.25;;
64401;SDS011;50724;42.376;23.768;2023-05-27T19:13:40;5.15;;;2.60;;
64401;SDS011;50724;42.376;23.768;2023-05-27T19:16:40;4.87;;;2.83;;
64401;SDS011;50724;42.376;23.768;2023-05-27T19:19:40;4.45;;;2.58;;
64401;SDS011;50724;42.376;23.768;2023-05-27T19:22:41;4.30;;;2.10;;
64401;SDS011;50724;42.376;23.768;2023-05-27T19:25:42;4.63;;;2.20;;
64401;SDS011;50724;42.376;23.768;2023-05-27T19:28:42;4.85;;;2.53;;
64401;SDS011;50724;42.376;23.768;2023-05-27T19:31:44;4.97;;;2.90;;
64401;SDS011;50724;42.376;23.768;2023-05-27T19:34:45;4.80;;;2.40;;
64401;SDS011;50724;42.376;23.768;2023-05-27T19:37:45;4.40;;;2.10;;
64401;SDS011;50724;42.376;23.768;2023-05-27T19:40:46;8.35;;;2.80;;
64401;SDS011;50724;42.376;23.768;2023-05-27T19:43:46;5.57;;;2.73;;
64401;SDS011;50724;42.376;23.768;2023-05-27T19:46:47;5.17;;;2.43;;
64401;SDS011;50724;42.376;23.768;2023-05-27T19:49:47;5.53;;;2.65;;
64401;SDS011;50724;42.376;23.768;2023-05-27T19:52:48;6.10;;;2.85;;
64401;SDS011;50724;42.376;23.768;2023-05-27T19:55:48;4.40;;;2.80;;
64401;SDS011;50724;42.376;23.768;2023-05-27T19:58:49;6.07;;;2.60;;
64401;SDS011;50724;42.376;23.768;2023-05-27T20:01:50;4.82;;;2.80;;
64401;SDS011;50724;42.376;23.768;2023-05-27T20:04:52;5.03;;;3.22;;
64401;SDS011;50724;42.376;23.768;2023-05-27T20:07:54;5.60;;;3.20;;
64401;SDS011;50724;42.376;23.768;2023-05-27T20:10:55;8.60;;;4.60;;
64401;SDS011;50724;42.376;23.768;2023-05-27T20:13:55;6.20;;;2.90;;
64401;SDS011;50724;42.376;23.768;2023-05-27T20:16:56;6.87;;;2.70;;
64401;SDS011;50724;42.376;23.768;2023-05-27T20:19:57;5.78;;;2.20;;
64401;SDS011;50724;42.376;23.768;2023-05-27T20:22:57;4.07;;;2.35;;
64401;SDS011;50724;42.376;23.768;2023-05-27T20:25:57;4.13;;;2.08;;
64401;SDS011;50724;42.376;23.768;2023-05-27T20:28:58;4.82;;;2.20;;
64401;SDS011;50724;42.376;23.768;2023-05-27T20:31:59;5.72;;;2.40;;
64401;SDS011;50724;42.376;23.768;2023-05-27T20:35:00;6.38;;;2.05;;
64401;SDS011;50724;42.376;23.768;2023-05-27T20:38:00;3.95;;;1.90;;
64401;SDS011;50724;42.376;23.768;2023-05-27T20:41:01;3.37;;;1.53;;
64401;SDS011;50724;42.376;23.768;2023-05-27T20:44:03;3.22;;;1.75;;
64401;SDS011;50724;42.376;23.768;2023-05-27T20:47:04;3.92;;;1.80;;
64401;SDS011;50724;42.376;23.768;2023-05-27T20:50:05;3.38;;;1.65;;
64401;SDS011;50724;42.376;23.768;2023-05-27T20:53:06;5.00;;;1.55;;
64401;SDS011;50724;42.376;23.768;2023-05-27T20:56:07;3.38;;;1.58;;
64401;SDS011;50724;42.376;23.768;2023-05-27T20:59:07;2.97;;;1.50;;
64401;SDS011;50724;42.376;23.768;2023-05-27T21:02:10;3.23;;;1.50;;
64401;SDS011;50724;42.376;23.768;2023-05-27T21:05:13;3.45;;;1.65;;
64401;SDS011;50724;42.376;23.768;2023-05-27T21:08:14;4.43;;;1.40;;
64401;SDS011;50724;42.376;23.768;2023-05-27T21:11:15;3.03;;;1.40;;
64401;SDS011;50724;42.376;23.768;2023-05-27T21:14:16;4.45;;;1.67;;
64401;SDS011;50724;42.376;23.768;2023-05-27T21:17:17;4.63;;;2.00;;
64401;SDS011;50724;42.376;23.768;2023-05-27T21:20:17;3.73;;;1.80;;
64401;SDS011;50724;42.376;23.768;2023-05-27T21:23:17;3.83;;;1.60;;
64401;SDS011;50724;42.376;23.768;2023-05-27T21:26:18;5.87;;;1.80;;
64401;SDS011;50724;42.376;23.768;2023-05-27T21:29:18;3.70;;;1.98;;
64401;SDS011;50724;42.376;23.768;2023-05-27T21:32:19;5.68;;;1.98;;
64401;SDS011;50724;42.376;23.768;2023-05-27T21:35:22;4.78;;;2.08;;
64401;SDS011;50724;42.376;23.768;2023-05-27T21:38:23;5.88;;;2.30;;
64401;SDS011;50724;42.376;23.768;2023-05-27T21:41:26;4.88;;;2.22;;
64401;SDS011;50724;42.376;23.768;2023-05-27T21:44:35;6.35;;;2.92;;
64401;SDS011;50724;42.376;23.768;2023-05-27T21:47:36;6.88;;;2.40;;
64401;SDS011;50724;42.376;23.768;2023-05-27T21:50:36;6.00;;;2.92;;
64401;SDS011;50724;42.376;23.768;2023-05-27T21:53:37;6.97;;;3.17;;
64401;SDS011;50724;42.376;23.768;2023-05-27T21:56:37;5.28;;;2.47;;
64401;SDS011;50724;42.376;23.768;2023-05-27T21:59:39;5.40;;;2.85;;
64401;SDS011;50724;42.376;23.768;2023-05-27T22:02:39;4.88;;;2.80;;
64401;SDS011;50724;42.376;23.768;2023-05-27T22:05:40;5.30;;;2.20;;
64401;SDS011;50724;42.376;23.768;2023-05-27T22:08:40;7.25;;;2.92;;
64401;SDS011;50724;42.376;23.768;2023-05-27T22:11:41;5.25;;;2.40;;
64401;SDS011;50724;42.376;23.768;2023-05-27T22:14:41;8.57;;;3.20;;
64401;SDS011;50724;42.376;23.768;2023-05-27T22:17:50;5.68;;;3.25;;
64401;SDS011;50724;42.376;23.768;2023-05-27T22:20:51;11.60;;;4.00;;
64401;SDS011;50724;42.376;23.768;2023-05-27T22:23:52;7.32;;;3.80;;
64401;SDS011;50724;42.376;23.768;2023-05-27T22:26:52;8.68;;;3.28;;
64401;SDS011;50724;42.376;23.768;2023-05-27T22:29:52;6.53;;;3.90;;
64401;SDS011;50724;42.376;23.768;2023-05-27T22:32:53;7.20;;;3.65;;
64401;SDS011;50724;42.376;23.768;2023-05-27T22:35:54;7.18;;;4.03;;
64401;SDS011;50724;42.376;23.768;2023-05-27T22:38:55;6.85;;;3.58;;
64401;SDS011;50724;42.376;23.768;2023-05-27T22:41:56;7.30;;;3.63;;
64401;SDS011;50724;42.376;23.768;2023-05-27T22:44:56;8.30;;;3.85;;
64401;SDS011;50724;42.376;23.768;2023-05-27T22:48:00;8.60;;;3.90;;
64401;SDS011;50724;42.376;23.768;2023-05-27T22:51:00;7.27;;;4.30;;
64401;SDS011;50724;42.376;23.768;2023-05-27T22:54:00;7.97;;;3.80;;
64401;SDS011;50724;42.376;23.768;2023-05-27T22:57:01;7.18;;;4.60;;
64401;SDS011;50724;42.376;23.768;2023-05-27T23:00:02;8.10;;;4.75;;
64401;SDS011;50724;42.376;23.768;2023-05-27T23:03:05;8.45;;;4.70;;
64401;SDS011;50724;42.376;23.768;2023-05-27T23:06:06;8.20;;;4.28;;
64401;SDS011;50724;42.376;23.768;2023-05-27T23:09:07;8.15;;;4.68;;